Time;durP1;ratioP1;P1;durP2;ratioP2;P2;SDS_P1;SDS_P2;PMS_P1;PMS_P2;Temp;Humidity;BMP_temperature;BMP_pressure;BME280_temperature;BME280_humidity;BME280_pressure;Samples;Min_cycle;Max_cycle;Signal;HPM_P1;HPM_P2
2021/07/05 00:01:32;;;;;;;2.67;2.17;;;18.30;87.20;;;;;;4968236;28;20186;-88
2021/07/05 00:03:58;;;;;;;3.78;2.08;;;18.30;86.90;;;;;;4985922;28;20556;-88
2021/07/05 00:06:24;;;;;;;3.38;2.25;;;18.20;86.40;;;;;;5003308;28;20184;-87
2021/07/05 00:08:50;;;;;;;4.00;1.92;;;18.30;87.10;;;;;;4985371;28;20189;-88
2021/07/05 00:11:15;;;;;;;2.05;1.95;;;18.30;87.10;;;;;;5002953;28;20216;-89
2021/07/05 00:13:41;;;;;;;3.88;1.98;;;18.50;86.70;;;;;;4985670;28;20186;-87
2021/07/05 00:16:07;;;;;;;4.68;2.10;;;18.50;86.10;;;;;;5002896;28;20182;-87
2021/07/05 00:18:33;;;;;;;2.33;2.10;;;18.50;86.00;;;;;;4984896;28;20216;-88
2021/07/05 00:20:59;;;;;;;2.22;1.90;;;18.50;85.70;;;;;;4984730;28;20300;-87
2021/07/05 00:23:25;;;;;;;2.00;1.90;;;18.50;85.60;;;;;;5002683;28;20197;-88
2021/07/05 00:25:51;;;;;;;2.58;2.03;;;18.60;85.40;;;;;;4984539;28;20205;-90
2021/07/05 00:28:17;;;;;;;4.63;2.10;;;18.60;85.10;;;;;;5003580;28;20221;-89
2021/07/05 00:30:45;;;;;;;3.42;2.10;;;18.50;85.40;;;;;;4994051;28;20585;-89
2021/07/05 00:33:11;;;;;;;3.90;2.13;;;18.60;85.80;;;;;;5005954;28;20185;-88
2021/07/05 00:35:36;;;;;;;3.00;2.22;;;18.60;85.30;;;;;;5022994;28;20177;-87
2021/07/05 00:38:02;;;;;;;1.98;1.88;;;18.70;85.00;;;;;;5022902;28;20260;-87
2021/07/05 00:40:29;;;;;;;3.25;2.28;;;18.70;85.00;;;;;;5023032;28;20224;-88
2021/07/05 00:42:55;;;;;;;4.55;2.17;;;18.60;85.30;;;;;;5005447;28;20186;-86
2021/07/05 00:45:22;;;;;;;3.88;2.22;;;18.60;85.70;;;;;;5023047;28;20237;-88
2021/07/05 00:47:48;;;;;;;4.85;2.13;;;18.60;85.60;;;;;;5004410;28;20221;-87
2021/07/05 00:50:16;;;;;;;3.70;2.08;;;18.70;85.80;;;;;;5022936;28;20279;-89
2021/07/05 00:52:43;;;;;;;2.00;1.90;;;18.70;85.80;;;;;;5005663;28;20184;-87
2021/07/05 00:55:12;;;;;;;2.88;1.92;;;18.60;85.80;;;;;;5023007;28;20740;-90
2021/07/05 00:57:37;;;;;;;2.08;1.92;;;18.60;85.60;;;;;;5022758;28;20663;-90
2021/07/05 01:00:07;;;;;;;2.53;2.30;;;18.60;85.60;;;;;;5005192;28;20273;-87
2021/07/05 01:02:32;;;;;;;5.03;2.20;;;18.50;86.00;;;;;;5026599;28;20195;-87
2021/07/05 01:04:58;;;;;;;3.80;2.17;;;18.40;86.50;;;;;;5007872;28;20245;-87
2021/07/05 01:07:24;;;;;;;1.88;1.77;;;18.30;87.10;;;;;;5023879;28;20186;-90
2021/07/05 01:09:50;;;;;;;2.17;1.98;;;18.20;87.30;;;;;;5004690;28;20232;-91
2021/07/05 01:12:16;;;;;;;3.10;1.92;;;18.30;87.40;;;;;;5023017;28;20185;-87
2021/07/05 01:14:43;;;;;;;2.55;2.17;;;18.30;86.90;;;;;;5022522;28;20205;-87
2021/07/05 01:17:16;;;;;;;2.22;2.10;;;18.40;86.70;;;;;;5022939;28;20196;-88
2021/07/05 01:19:48;;;;;;;2.00;1.90;;;18.50;86.40;;;;;;5022748;28;20203;-89
2021/07/05 01:22:14;;;;;;;2.22;2.00;;;18.40;86.40;;;;;;5004871;28;20237;-87
2021/07/05 01:24:42;;;;;;;2.47;2.20;;;18.60;86.20;;;;;;5004526;28;20208;-87
2021/07/05 01:27:08;;;;;;;2.72;2.13;;;18.60;85.80;;;;;;5022442;28;20264;-87
2021/07/05 01:29:34;;;;;;;2.40;2.20;;;18.60;86.00;;;;;;4988765;28;20259;-88
2021/07/05 01:32:00;;;;;;;5.07;1.98;;;18.60;85.50;;;;;;5004971;28;20230;-87
2021/07/05 01:34:26;;;;;;;3.42;2.25;;;18.60;85.50;;;;;;5005097;28;20202;-88
2021/07/05 01:36:52;;;;;;;4.55;2.05;;;18.60;86.40;;;;;;5004845;28;20274;-87
2021/07/05 01:39:19;;;;;;;2.75;2.35;;;18.60;85.40;;;;;;4989523;28;20230;-87
2021/07/05 01:41:46;;;;;;;5.25;2.63;;;18.60;85.30;;;;;;5002502;28;20182;-89
2021/07/05 01:44:12;;;;;;;4.40;2.22;;;18.60;85.10;;;;;;5005602;28;20181;-87
2021/07/05 01:46:38;;;;;;;3.35;2.20;;;18.60;85.20;;;;;;5004579;28;20210;-88
2021/07/05 01:49:04;;;;;;;3.90;2.42;;;18.60;85.30;;;;;;5004780;28;20177;-87
2021/07/05 01:51:29;;;;;;;2.30;2.10;;;18.60;85.40;;;;;;5022074;28;20186;-88
2021/07/05 01:53:55;;;;;;;3.38;2.17;;;18.60;85.60;;;;;;5021490;28;20208;-91
2021/07/05 01:56:21;;;;;;;2.17;1.90;;;18.60;85.80;;;;;;5004158;28;20185;-87
2021/07/05 01:58:46;;;;;;;2.58;2.38;;;18.60;85.50;;;;;;5003661;28;20177;-87
2021/07/05 02:01:12;;;;;;;2.45;2.10;;;18.70;85.10;;;;;;4984685;28;20206;-87
2021/07/05 02:03:38;;;;;;;2.42;2.22;;;18.60;85.40;;;;;;4984539;28;20197;-87
2021/07/05 02:06:04;;;;;;;2.10;2.00;;;18.60;85.70;;;;;;5002236;28;20200;-87
2021/07/05 02:08:29;;;;;;;2.88;2.15;;;18.60;85.70;;;;;;4984485;28;20204;-87
2021/07/05 02:10:55;;;;;;;2.65;2.10;;;18.70;85.60;;;;;;5001833;28;20819;-88
2021/07/05 02:13:27;;;;;;;2.60;2.40;;;18.70;85.60;;;;;;5017407;28;20194;-87
2021/07/05 02:15:56;;;;;;;4.50;2.42;;;18.70;85.90;;;;;;5007510;28;20197;-88
2021/07/05 02:18:23;;;;;;;3.35;2.55;;;18.60;85.80;;;;;;5035169;28;20178;-87
2021/07/05 02:20:49;;;;;;;4.00;2.10;;;18.60;86.10;;;;;;5022245;28;20212;-88
2021/07/05 02:23:18;;;;;;;6.38;2.55;;;18.60;86.30;;;;;;5030492;28;20170;-91
2021/07/05 02:25:45;;;;;;;3.45;2.40;;;18.60;86.30;;;;;;5030978;28;20671;-87
2021/07/05 02:28:14;;;;;;;5.93;2.50;;;18.60;86.20;;;;;;5023535;28;20177;-87
2021/07/05 02:30:42;;;;;;;2.38;2.22;;;18.50;86.30;;;;;;4989046;28;20218;-87
2021/07/05 02:33:07;;;;;;;3.58;2.03;;;18.50;86.70;;;;;;5020376;28;20208;-87
2021/07/05 02:35:34;;;;;;;3.22;2.30;;;18.40;86.70;;;;;;5004007;28;20185;-87
2021/07/05 02:38:03;;;;;;;2.88;2.28;;;18.50;86.60;;;;;;5021625;28;20236;-87
2021/07/05 02:40:32;;;;;;;3.55;2.53;;;18.60;86.50;;;;;;5020043;28;20198;-88
2021/07/05 02:42:58;;;;;;;5.03;2.20;;;18.60;87.30;;;;;;5021654;28;20173;-87
2021/07/05 02:45:27;;;;;;;2.78;2.50;;;18.50;86.40;;;;;;5020717;28;20181;-87
2021/07/05 02:47:55;;;;;;;4.78;2.42;;;18.50;86.70;;;;;;5017551;28;20181;-88
2021/07/05 02:50:21;;;;;;;2.88;2.08;;;18.50;86.90;;;;;;4999012;28;20221;-87
2021/07/05 02:52:48;;;;;;;2.58;2.38;;;18.50;86.80;;;;;;5017096;28;20182;-87
2021/07/05 02:55:14;;;;;;;4.68;2.53;;;18.40;87.10;;;;;;5016428;28;20203;-88
2021/07/05 02:57:43;;;;;;;2.65;2.45;;;18.50;87.20;;;;;;5016797;28;20190;-87
2021/07/05 03:00:12;;;;;;;4.28;2.33;;;18.50;87.00;;;;;;5016394;28;20229;-90
2021/07/05 03:02:37;;;;;;;2.70;2.33;;;18.50;87.10;;;;;;5017978;28;20189;-87
2021/07/05 03:05:08;;;;;;;4.10;2.20;;;18.50;87.20;;;;;;5000120;28;20192;-89
2021/07/05 03:07:34;;;;;;;4.80;2.45;;;18.60;87.20;;;;;;5017514;28;20185;-87
2021/07/05 03:10:00;;;;;;;2.90;2.40;;;18.60;86.70;;;;;;5017590;28;20261;-87
2021/07/05 03:12:26;;;;;;;3.42;2.47;;;18.60;87.30;;;;;;5021851;28;20181;-87
2021/07/05 03:14:54;;;;;;;6.57;2.35;;;18.60;87.60;;;;;;5022265;28;20249;-88
2021/07/05 03:17:20;;;;;;;3.78;2.47;;;18.60;86.70;;;;;;5023036;28;20189;-89
2021/07/05 03:19:45;;;;;;;4.03;2.28;;;18.70;86.90;;;;;;5022199;28;20283;-89
2021/07/05 03:22:13;;;;;;;2.83;2.40;;;18.70;86.50;;;;;;5022700;28;20184;-88
2021/07/05 03:24:39;;;;;;;2.53;2.30;;;18.70;86.80;;;;;;5023785;28;20170;-87
2021/07/05 03:27:05;;;;;;;2.47;2.35;;;18.60;87.00;;;;;;5004804;28;20189;-87
2021/07/05 03:29:31;;;;;;;2.80;2.60;;;18.70;86.80;;;;;;5004478;28;20700;-88
2021/07/05 03:31:57;;;;;;;2.63;2.40;;;18.70;86.40;;;;;;5004648;28;20537;-87
2021/07/05 03:34:23;;;;;;;3.28;2.40;;;18.70;86.70;;;;;;5021097;28;20195;-87
2021/07/05 03:36:48;;;;;;;2.83;2.45;;;18.60;87.10;;;;;;5022044;28;20182;-88
2021/07/05 03:39:14;;;;;;;2.92;2.38;;;18.60;87.10;;;;;;5024249;28;20217;-88
2021/07/05 03:41:39;;;;;;;2.42;2.28;;;18.50;87.80;;;;;;5006674;28;20243;-87
2021/07/05 03:44:05;;;;;;;3.53;2.50;;;18.60;87.40;;;;;;5022553;28;20181;-88
2021/07/05 03:46:31;;;;;;;5.28;2.70;;;18.50;87.70;;;;;;5022458;28;20196;-88
2021/07/05 03:48:56;;;;;;;2.72;2.50;;;18.40;88.30;;;;;;5022534;28;20182;-90
2021/07/05 03:51:22;;;;;;;7.00;2.63;;;18.30;89.10;;;;;;5020824;28;20607;-91
2021/07/05 03:53:48;;;;;;;3.05;2.42;;;18.20;89.30;;;;;;5004197;28;20682;-87
2021/07/05 03:56:14;;;;;;;2.78;2.50;;;18.20;89.50;;;;;;5004114;28;20185;-87
2021/07/05 03:58:39;;;;;;;3.50;2.88;;;18.20;89.70;;;;;;5022348;28;20196;-87
2021/07/05 04:01:05;;;;;;;3.28;2.45;;;18.10;90.80;;;;;;5004438;28;20255;-87
2021/07/05 04:03:30;;;;;;;4.07;2.40;;;18.00;90.80;;;;;;5021538;28;20185;-87
2021/07/05 04:05:59;;;;;;;5.82;2.53;;;18.00;91.40;;;;;;5000953;28;20196;-88
2021/07/05 04:08:27;;;;;;;4.25;2.60;;;18.20;90.90;;;;;;5017068;28;20592;-88
2021/07/05 04:10:54;;;;;;;3.40;2.47;;;18.10;90.90;;;;;;5016900;28;20703;-88
2021/07/05 04:13:22;;;;;;;6.20;2.50;;;18.20;90.80;;;;;;4999542;28;20184;-88
2021/07/05 04:15:48;;;;;;;6.60;2.20;;;18.10;91.00;;;;;;5014851;28;20182;-88
2021/07/05 04:18:14;;;;;;;4.55;2.72;;;18.00;91.40;;;;;;4997255;28;20263;-87
2021/07/05 04:20:40;;;;;;;7.37;2.57;;;17.90;92.80;;;;;;4947797;28;20231;-87
2021/07/05 04:23:06;;;;;;;3.57;2.50;;;17.90;93.20;;;;;;4977429;28;20186;-88
2021/07/05 04:25:32;;;;;;;6.33;2.60;;;17.80;93.40;;;;;;4979183;28;20183;-88
2021/07/05 04:27:58;;;;;;;3.27;2.40;;;17.80;92.90;;;;;;4972369;28;20218;-88
2021/07/05 04:30:24;;;;;;;5.10;2.80;;;17.90;93.80;;;;;;5019095;28;20217;-87
2021/07/05 04:32:50;;;;;;;3.17;2.70;;;17.80;93.80;;;;;;5003896;28;20282;-88
2021/07/05 04:35:20;;;;;;;3.77;2.50;;;17.80;94.30;;;;;;5022686;28;20262;-87
2021/07/05 04:37:48;;;;;;;3.80;3.00;;;17.80;93.90;;;;;;5023214;28;20162;-91
2021/07/05 04:40:17;;;;;;;2.80;2.60;;;17.70;95.00;;;;;;5023776;28;20205;-91
2021/07/05 04:42:43;;;;;;;2.67;2.40;;;17.80;94.70;;;;;;5004505;28;20177;-86
2021/07/05 04:45:11;;;;;;;4.10;2.40;;;17.80;94.20;;;;;;5021120;28;20678;-87
2021/07/05 04:47:37;;;;;;;5.30;2.80;;;17.80;94.40;;;;;;5021613;28;20194;-89
2021/07/05 04:50:04;;;;;;;4.90;2.57;;;17.90;95.30;;;;;;5003624;28;20769;-88
2021/07/05 04:52:30;;;;;;;5.20;2.87;;;17.70;95.00;;;;;;5004899;28;20189;-87
2021/07/05 04:54:55;;;;;;;3.73;2.57;;;17.80;95.80;;;;;;5022074;28;20658;-88
2021/07/05 04:57:21;;;;;;;3.67;2.50;;;17.80;95.10;;;;;;5004505;28;20741;-87
2021/07/05 04:59:48;;;;;;;6.30;2.80;;;17.70;95.60;;;;;;5004341;28;20215;-87
2021/07/05 05:02:13;;;;;;;5.00;2.63;;;17.70;95.60;;;;;;4992490;28;20195;-87
2021/07/05 05:04:39;;;;;;;5.80;2.70;;;17.70;95.60;;;;;;4984647;28;20200;-89
2021/07/05 05:07:05;;;;;;;4.80;2.80;;;17.70;95.60;;;;;;4989760;28;20210;-90
2021/07/05 05:09:30;;;;;;;5.63;2.67;;;17.70;96.10;;;;;;5009597;28;20708;-87
2021/07/05 05:11:56;;;;;;;2.93;2.73;;;17.70;96.20;;;;;;4986242;28;20241;-87
2021/07/05 05:14:22;;;;;;;4.90;2.95;;;17.80;95.90;;;;;;4984172;28;20183;-87
2021/07/05 05:16:48;;;;;;;5.37;2.90;;;17.80;95.90;;;;;;5011141;28;20554;-88
2021/07/05 05:19:15;;;;;;;2.80;2.60;;;17.70;96.30;;;;;;5012179;28;20206;-87
2021/07/05 05:21:41;;;;;;;3.57;2.57;;;17.70;96.90;;;;;;5002216;28;20663;-87
2021/07/05 05:24:07;;;;;;;5.17;2.90;;;17.70;96.30;;;;;;5002414;28;20226;-87
2021/07/05 05:26:33;;;;;;;4.80;3.00;;;17.90;95.60;;;;;;4968621;28;20192;-90
2021/07/05 05:29:00;;;;;;;5.03;2.97;;;17.80;96.00;;;;;;5002257;28;20185;-86
2021/07/05 05:31:27;;;;;;;5.73;3.27;;;17.70;96.10;;;;;;4983931;28;20211;-87
2021/07/05 05:33:53;;;;;;;3.33;2.80;;;17.70;96.50;;;;;;4966203;28;20317;-87
2021/07/05 05:36:18;;;;;;;3.93;2.80;;;17.80;96.10;;;;;;5000352;28;20188;-89
2021/07/05 05:38:48;;;;;;;2.87;2.60;;;17.90;95.70;;;;;;4983611;28;20194;-87
2021/07/05 05:41:15;;;;;;;3.07;2.83;;;17.90;95.20;;;;;;4983045;28;20288;-89
2021/07/05 05:43:40;;;;;;;3.23;2.77;;;17.90;95.60;;;;;;4997060;28;20192;-87
2021/07/05 05:46:07;;;;;;;3.33;3.00;;;17.70;96.00;;;;;;4979461;28;20554;-87
2021/07/05 05:48:33;;;;;;;3.63;2.80;;;17.70;96.90;;;;;;4981505;28;20279;-87
2021/07/05 05:50:59;;;;;;;2.97;2.77;;;17.80;96.50;;;;;;4999550;28;20237;-87
2021/07/05 05:53:25;;;;;;;4.57;3.00;;;17.70;97.00;;;;;;4985867;28;20202;-87
2021/07/05 05:55:51;;;;;;;4.77;3.40;;;17.60;96.40;;;;;;5006478;28;20178;-87
2021/07/05 05:58:17;;;;;;;7.00;3.17;;;17.60;97.40;;;;;;5005739;28;20189;-86
2021/07/05 06:00:43;;;;;;;3.73;3.40;;;17.50;98.10;;;;;;4987643;28;20210;-86
2021/07/05 06:03:09;;;;;;;6.37;2.80;;;17.60;97.70;;;;;;5005827;28;20249;-86
2021/07/05 06:05:35;;;;;;;3.10;2.90;;;17.70;96.90;;;;;;5006274;28;20187;-86
2021/07/05 06:08:01;;;;;;;10.93;3.13;;;17.60;97.70;;;;;;4989257;28;20191;-87
2021/07/05 06:10:27;;;;;;;5.60;3.10;;;17.70;97.60;;;;;;4988785;28;20228;-88
2021/07/05 06:12:54;;;;;;;4.23;2.73;;;17.70;97.70;;;;;;5005403;28;20185;-87
2021/07/05 06:15:22;;;;;;;3.53;2.90;;;17.70;97.60;;;;;;5003179;28;20187;-88
2021/07/05 06:17:49;;;;;;;4.27;2.83;;;17.70;98.40;;;;;;5025065;28;20177;-86
2021/07/05 06:20:15;;;;;;;6.83;3.10;;;17.80;97.40;;;;;;5011419;28;20214;-89
2021/07/05 06:22:55;;;;;;;4.93;3.00;;;17.80;97.40;;;;;;5005572;28;20199;-87
2021/07/05 06:25:23;;;;;;;5.50;3.00;;;17.80;97.60;;;;;;5004885;28;20171;-86
2021/07/05 06:27:50;;;;;;;5.77;3.33;;;17.90;97.60;;;;;;4987651;28;20538;-86
2021/07/05 06:30:16;;;;;;;4.87;2.97;;;17.90;97.40;;;;;;5007735;28;20269;-87
2021/07/05 06:32:42;;;;;;;5.67;2.70;;;17.90;97.30;;;;;;5020741;28;20194;-87
2021/07/05 06:35:10;;;;;;;7.50;3.00;;;18.00;97.70;;;;;;5017441;28;20189;-86
2021/07/05 06:37:36;;;;;;;4.53;3.10;;;17.90;97.70;;;;;;5006551;28;20244;-85
2021/07/05 06:40:07;;;;;;;3.42;3.20;;;17.90;98.00;;;;;;5024479;28;20211;-87
2021/07/05 06:42:34;;;;;;;3.50;3.17;;;17.90;98.10;;;;;;5022984;28;20175;-87
2021/07/05 06:45:00;;;;;;;4.75;2.95;;;18.20;97.10;;;;;;5000621;28;20205;-86
2021/07/05 06:47:26;;;;;;;6.60;3.00;;;18.30;96.60;;;;;;5022163;28;20264;-87
2021/07/05 06:49:51;;;;;;;5.17;3.43;;;18.30;95.80;;;;;;5006369;28;20215;-86
2021/07/05 06:52:17;;;;;;;3.20;2.90;;;18.30;95.50;;;;;;4985031;28;20578;-86
2021/07/05 06:54:43;;;;;;;3.63;2.90;;;18.30;95.30;;;;;;5002141;28;20190;-89
2021/07/05 06:57:28;;;;;;;5.13;3.07;;;18.30;96.00;;;;;;5017072;28;20188;-87
2021/07/05 06:59:54;;;;;;;3.00;2.80;;;18.30;96.40;;;;;;4994965;28;20829;-86
2021/07/05 07:02:20;;;;;;;2.90;2.70;;;18.40;97.10;;;;;;5022585;28;20216;-86
2021/07/05 07:04:45;;;;;;;3.00;2.65;;;18.50;95.80;;;;;;5021125;28;20201;-88
2021/07/05 07:07:11;;;;;;;3.15;2.78;;;18.50;96.00;;;;;;5004036;28;20202;-86
2021/07/05 07:09:37;;;;;;;2.92;2.63;;;18.60;95.90;;;;;;4997458;28;20273;-85
2021/07/05 07:12:02;;;;;;;4.47;2.70;;;18.60;94.10;;;;;;4999619;28;20655;-87
2021/07/05 07:14:28;;;;;;;4.13;3.00;;;18.60;95.20;;;;;;5019400;28;20226;-86
2021/07/05 07:17:03;;;;;;;3.33;2.50;;;18.50;94.60;;;;;;5001864;28;20203;-87
2021/07/05 07:19:28;;;;;;;2.70;2.50;;;18.60;93.50;;;;;;5009402;28;20237;-87
2021/07/05 07:22:04;;;;;;;3.10;2.80;;;18.60;95.60;;;;;;5021380;28;20183;-87
2021/07/05 07:24:31;;;;;;;2.83;2.63;;;18.60;96.80;;;;;;5022924;28;20578;-87
2021/07/05 07:26:58;;;;;;;2.83;2.63;;;18.60;95.10;;;;;;5027378;28;20258;-88
2021/07/05 07:29:24;;;;;;;2.60;2.40;;;18.60;94.10;;;;;;5008760;28;20216;-87
2021/07/05 07:31:49;;;;;;;2.30;2.13;;;18.70;94.30;;;;;;5012737;28;20199;-90
2021/07/05 07:34:15;;;;;;;4.70;2.77;;;18.70;93.80;;;;;;5019775;28;20183;-88
2021/07/05 07:36:41;;;;;;;6.00;2.87;;;18.70;94.60;;;;;;5035837;28;20309;-88
2021/07/05 07:39:18;;;;;;;4.35;2.90;;;18.80;94.40;;;;;;5011751;28;20194;-88
2021/07/05 07:41:44;;;;;;;2.83;2.63;;;19.00;92.70;;;;;;5030017;28;20159;-88
2021/07/05 07:44:10;;;;;;;5.22;2.40;;;19.10;92.60;;;;;;5011379;28;20180;-88
2021/07/05 07:46:36;;;;;;;3.83;2.78;;;19.10;92.90;;;;;;5028048;28;20180;-88
2021/07/05 07:49:01;;;;;;;2.80;2.60;;;19.10;92.00;;;;;;4990044;28;20196;-88
2021/07/05 07:51:27;;;;;;;2.83;2.63;;;19.20;91.80;;;;;;4974871;28;20299;-88
2021/07/05 07:53:55;;;;;;;2.92;2.60;;;19.30;90.60;;;;;;4991558;28;20192;-87
2021/07/05 07:56:21;;;;;;;4.97;2.80;;;19.40;90.20;;;;;;5010411;28;20180;-87
2021/07/05 07:58:47;;;;;;;3.83;2.60;;;19.30;89.30;;;;;;5021153;28;20183;-86
2021/07/05 08:01:16;;;;;;;2.97;2.50;;;19.20;91.70;;;;;;5027699;28;20299;-87
2021/07/05 08:03:42;;;;;;;2.70;2.50;;;19.30;89.70;;;;;;5016406;28;20179;-87
2021/07/05 08:06:08;;;;;;;3.53;2.42;;;19.40;89.00;;;;;;4988734;28;20191;-87
2021/07/05 08:08:33;;;;;;;3.83;2.78;;;19.30;90.20;;;;;;5036154;28;20180;-86
2021/07/05 08:10:59;;;;;;;4.30;2.53;;;19.40;89.60;;;;;;5003897;28;20594;-88
2021/07/05 08:13:25;;;;;;;5.13;3.13;;;19.20;90.60;;;;;;5026357;28;20191;-87
2021/07/05 08:15:52;;;;;;;3.17;2.22;;;19.50;88.40;;;;;;4997237;28;20198;-88
2021/07/05 08:18:19;;;;;;;2.60;2.40;;;19.40;88.90;;;;;;5001293;28;20212;-87
2021/07/05 08:20:45;;;;;;;4.82;2.70;;;19.30;87.80;;;;;;5007517;28;20215;-88
2021/07/05 08:23:11;;;;;;;2.60;2.40;;;19.40;88.80;;;;;;4995100;28;20203;-88
2021/07/05 08:25:36;;;;;;;2.80;2.60;;;19.40;88.80;;;;;;5009780;28;20176;-87
2021/07/05 08:28:03;;;;;;;2.78;2.58;;;19.50;88.10;;;;;;5027971;28;20192;-88
2021/07/05 08:30:28;;;;;;;2.55;2.35;;;19.50;88.90;;;;;;5027383;28;20306;-88
2021/07/05 08:32:55;;;;;;;3.25;2.35;;;19.40;86.90;;;;;;5026599;28;20181;-88
2021/07/05 08:35:22;;;;;;;2.88;2.67;;;19.40;88.40;;;;;;5002977;28;20256;-87
2021/07/05 08:37:49;;;;;;;2.55;2.35;;;19.40;87.10;;;;;;5018841;28;20166;-86
2021/07/05 08:40:16;;;;;;;3.03;2.50;;;19.40;88.10;;;;;;4993356;28;20263;-87
2021/07/05 08:42:42;;;;;;;2.70;2.50;;;19.20;87.30;;;;;;5018338;28;20245;-88
2021/07/05 08:45:08;;;;;;;2.80;2.50;;;19.30;88.80;;;;;;5017821;28;20211;-88
2021/07/05 08:47:40;;;;;;;2.78;2.47;;;19.40;87.20;;;;;;5007735;28;20181;-88
2021/07/05 08:50:08;;;;;;;2.60;2.40;;;19.40;88.50;;;;;;5009819;28;20216;-88
2021/07/05 08:52:35;;;;;;;2.53;2.25;;;19.50;87.60;;;;;;4996152;28;20182;-87
2021/07/05 08:55:03;;;;;;;2.22;2.03;;;19.50;88.90;;;;;;5014653;28;20181;-87
2021/07/05 08:57:37;;;;;;;3.50;2.25;;;19.40;87.80;;;;;;5015572;28;20189;-88
2021/07/05 09:00:06;;;;;;;5.53;2.28;;;19.40;86.80;;;;;;5014115;28;20212;-87
2021/07/05 09:02:32;;;;;;;3.10;2.40;;;19.30;87.80;;;;;;5012536;28;20188;-87
2021/07/05 09:04:59;;;;;;;2.17;1.92;;;19.30;85.70;;;;;;5015006;28;20191;-88
2021/07/05 09:07:25;;;;;;;1.85;1.75;;;19.20;84.30;;;;;;5010666;28;20177;-88
2021/07/05 09:10:05;;;;;;;1.85;1.75;;;19.10;84.60;;;;;;5018621;28;20279;-87
2021/07/05 09:12:31;;;;;;;1.80;1.70;;;19.10;85.20;;;;;;5023026;28;20179;-87
2021/07/05 09:15:12;;;;;;;2.25;2.05;;;19.20;85.30;;;;;;4995850;28;20184;-89
2021/07/05 09:17:41;;;;;;;2.95;1.90;;;19.40;84.40;;;;;;5010377;28;20185;-89
2021/07/05 09:20:13;;;;;;;2.83;2.00;;;19.40;86.00;;;;;;4995784;28;20209;-89
2021/07/05 09:22:59;;;;;;;2.00;1.80;;;19.40;85.20;;;;;;5010675;28;20179;-90
2021/07/05 09:25:35;;;;;;;2.50;1.92;;;19.40;86.20;;;;;;4984804;28;20194;-90
2021/07/05 09:28:03;;;;;;;3.22;2.45;;;19.60;85.50;;;;;;5003835;28;20272;-90
2021/07/05 09:30:41;;;;;;;2.10;1.98;;;19.60;86.50;;;;;;5022039;28;20198;-89
2021/07/05 09:33:28;;;;;;;2.17;1.98;;;19.60;84.90;;;;;;5010467;28;20217;-90
2021/07/05 09:35:59;;;;;;;2.20;2.00;;;19.60;84.60;;;;;;4970231;28;20210;-89
2021/07/05 09:38:37;;;;;;;2.00;1.90;;;19.80;85.10;;;;;;4985447;28;20196;-88
2021/07/05 09:41:21;;;;;;;2.50;2.30;;;19.80;84.30;;;;;;5003037;28;20198;-91
2021/07/05 09:43:53;;;;;;;3.08;2.35;;;19.90;84.40;;;;;;5019589;28;20186;-90
2021/07/05 09:46:38;;;;;;;2.88;2.30;;;20.00;82.90;;;;;;5022711;28;20186;-90
2021/07/05 09:49:14;;;;;;;2.55;2.35;;;20.10;83.90;;;;;;5022914;28;20724;-89
2021/07/05 09:51:42;;;;;;;1.92;1.83;;;20.10;84.50;;;;;;5021809;28;20192;-87
2021/07/05 09:54:08;;;;;;;2.17;1.95;;;20.30;83.00;;;;;;4988409;28;20249;-90
2021/07/05 09:56:34;;;;;;;2.00;1.90;;;20.60;83.50;;;;;;5021339;28;20206;-90
2021/07/05 09:59:20;;;;;;;2.35;2.10;;;20.60;82.80;;;;;;5009796;28;20258;-89
2021/07/05 10:01:48;;;;;;;2.20;1.85;;;20.60;81.20;;;;;;5016969;28;20209;-88
2021/07/05 10:04:27;;;;;;;3.58;2.10;;;20.50;81.90;;;;;;5008799;28;20185;-89
2021/07/05 10:06:57;;;;;;;2.95;1.92;;;20.50;81.50;;;;;;5007138;28;20237;-89
2021/07/05 10:09:37;;;;;;;3.92;2.08;;;20.50;80.30;;;;;;5007580;28;20267;-89
2021/07/05 10:12:23;;;;;;;2.42;2.22;;;20.70;81.50;;;;;;5008882;28;20192;-89
2021/07/05 10:15:02;;;;;;;2.10;1.90;;;20.90;81.50;;;;;;5001167;28;20186;-89
2021/07/05 10:17:31;;;;;;;2.17;1.90;;;21.00;80.60;;;;;;4994064;28;20186;-89
2021/07/05 10:19:57;;;;;;;2.00;1.80;;;21.00;81.10;;;;;;5012002;28;20237;-87
2021/07/05 10:22:23;;;;;;;2.17;1.90;;;21.10;79.80;;;;;;5018771;28;20192;-88
2021/07/05 10:24:50;;;;;;;2.22;1.70;;;21.10;79.90;;;;;;5007016;28;20271;-89
2021/07/05 10:27:16;;;;;;;1.90;1.80;;;21.00;78.10;;;;;;5017759;28;20183;-89
2021/07/05 10:29:46;;;;;;;1.60;1.50;;;21.00;79.60;;;;;;5002949;28;20295;-89
2021/07/05 10:32:11;;;;;;;2.03;1.88;;;20.80;79.20;;;;;;5020957;28;20173;-88
2021/07/05 10:34:39;;;;;;;1.70;1.60;;;20.80;79.00;;;;;;5022032;28;20256;-88
2021/07/05 10:37:09;;;;;;;1.70;1.60;;;20.70;79.40;;;;;;5021570;28;20181;-89
2021/07/05 10:39:36;;;;;;;2.55;1.80;;;20.70;79.30;;;;;;5013300;28;20205;-89
2021/07/05 10:42:02;;;;;;;1.77;1.67;;;20.80;79.10;;;;;;4984121;28;20695;-87
2021/07/05 10:44:46;;;;;;;3.30;1.70;;;21.00;78.80;;;;;;4985439;28;20217;-88
2021/07/05 10:47:11;;;;;;;1.80;1.70;;;20.90;79.70;;;;;;4988560;28;20242;-89
2021/07/05 10:49:46;;;;;;;2.03;1.83;;;20.90;78.90;;;;;;5012629;28;20245;-89
2021/07/05 10:52:16;;;;;;;2.15;1.77;;;20.90;78.60;;;;;;4989957;28;20272;-88
2021/07/05 10:54:56;;;;;;;2.33;1.70;;;21.00;77.90;;;;;;5016615;28;20253;-88
2021/07/05 10:57:44;;;;;;;1.88;1.77;;;21.10;77.60;;;;;;5022701;28;20309;-87
2021/07/05 11:00:19;;;;;;;1.77;1.67;;;21.00;77.60;;;;;;5027800;28;20300;-89
2021/07/05 11:02:50;;;;;;;1.92;1.80;;;20.90;78.50;;;;;;5014015;28;20208;-88
2021/07/05 11:05:35;;;;;;;2.53;1.80;;;21.00;78.30;;;;;;5012112;28;20189;-88
2021/07/05 11:08:26;;;;;;;2.33;1.80;;;21.00;77.80;;;;;;5008919;28;20178;-88
2021/07/05 11:11:28;;;;;;;2.05;1.95;;;20.90;79.00;;;;;;5000764;28;20218;-89
2021/07/05 11:14:14;;;;;;;1.75;1.65;;;21.10;78.80;;;;;;4979353;28;20211;-89
2021/07/05 11:17:00;;;;;;;1.77;1.67;;;21.20;78.80;;;;;;5009201;28;20178;-89
2021/07/05 11:19:33;;;;;;;1.88;1.77;;;21.20;78.40;;;;;;5002095;28;20204;-89
2021/07/05 11:22:03;;;;;;;1.73;1.63;;;21.30;79.00;;;;;;5021036;28;20182;-88
2021/07/05 11:24:36;;;;;;;2.17;1.98;;;21.30;78.10;;;;;;5036327;28;20294;-88
2021/07/05 11:27:21;;;;;;;3.45;1.83;;;21.20;77.70;;;;;;5036294;28;20221;-88
2021/07/05 11:29:46;;;;;;;4.65;1.92;;;21.20;78.60;;;;;;5024996;28;20217;-89
2021/07/05 11:32:12;;;;;;;1.80;1.70;;;21.00;78.50;;;;;;5005031;28;20866;-88
2021/07/05 11:34:45;;;;;;;2.03;1.90;;;21.00;80.60;;;;;;4995915;28;20236;-89
2021/07/05 11:37:11;;;;;;;1.80;1.70;;;21.40;77.90;;;;;;5018767;28;20320;-88
2021/07/05 11:39:51;;;;;;;11.63;2.20;;;21.70;77.00;;;;;;5001239;28;20193;-89
2021/07/05 11:42:22;;;;;;;2.75;1.80;;;21.70;76.70;;;;;;5021825;28;20673;-89
2021/07/05 11:44:50;;;;;;;1.90;1.80;;;21.70;76.60;;;;;;5007725;28;20174;-87
2021/07/05 11:47:36;;;;;;;2.00;1.80;;;21.70;76.60;;;;;;5010070;28;20246;-88
2021/07/05 11:50:24;;;;;;;1.77;1.65;;;21.60;76.40;;;;;;4990930;28;20238;-88
2021/07/05 11:52:56;;;;;;;2.47;1.90;;;21.50;76.70;;;;;;5010435;28;20181;-87
2021/07/05 11:55:25;;;;;;;1.90;1.80;;;21.50;76.20;;;;;;4999320;28;20193;-88
2021/07/05 11:57:55;;;;;;;2.47;1.90;;;21.60;77.30;;;;;;5019855;28;20183;-88
2021/07/05 12:00:27;;;;;;;1.90;1.52;;;21.90;77.00;;;;;;4993219;28;20247;-88
2021/07/05 12:03:11;;;;;;;1.73;1.63;;;21.90;76.30;;;;;;4997683;28;20189;-87
2021/07/05 12:05:39;;;;;;;2.13;1.70;;;21.70;77.20;;;;;;5015002;28;20238;-87
2021/07/05 12:08:12;;;;;;;3.38;1.85;;;21.90;75.80;;;;;;5004063;28;20183;-87
2021/07/05 12:10:43;;;;;;;3.33;2.00;;;21.20;81.80;;;;;;5003936;28;20299;-88
2021/07/05 12:13:25;;;;;;;2.80;1.90;;;20.80;86.20;;;;;;5003919;28;20189;-88
2021/07/05 12:16:07;;;;;;;4.28;2.10;;;21.10;88.30;;;;;;5005025;28;20165;-88
2021/07/05 12:18:33;;;;;;;2.05;1.95;;;21.50;89.20;;;;;;5018026;28;20240;-88
2021/07/05 12:21:03;;;;;;;2.13;1.95;;;22.00;82.00;;;;;;5023701;28;20357;-88
2021/07/05 12:23:42;;;;;;;2.10;1.83;;;22.50;79.60;;;;;;5024579;28;20184;-88
2021/07/05 12:26:20;;;;;;;2.00;1.90;;;22.80;80.90;;;;;;5016728;28;20194;-88
2021/07/05 12:29:16;;;;;;;2.20;2.00;;;22.90;76.90;;;;;;5011597;28;20174;-88
2021/07/05 12:32:00;;;;;;;4.75;1.80;;;23.20;76.20;;;;;;5020966;28;20202;-88
2021/07/05 12:34:51;;;;;;;1.90;1.80;;;23.20;73.20;;;;;;5023481;28;20156;-88
2021/07/05 12:37:21;;;;;;;2.10;1.70;;;23.50;73.10;;;;;;5011343;28;20229;-90
2021/07/05 12:39:52;;;;;;;1.90;1.80;;;23.60;74.50;;;;;;5000985;28;20206;-89
2021/07/05 12:42:39;;;;;;;4.18;1.98;;;23.90;73.30;;;;;;5001332;28;20192;-90
2021/07/05 12:45:16;;;;;;;3.88;2.10;;;24.10;71.10;;;;;;4990269;28;20198;-89
2021/07/05 12:47:48;;;;;;;1.90;1.80;;;24.30;69.70;;;;;;4991226;28;20216;-89
2021/07/05 12:50:17;;;;;;;2.00;1.90;;;23.60;71.80;;;;;;5003172;28;20214;-89
2021/07/05 12:53:22;;;;;;;4.07;2.17;;;23.20;73.60;;;;;;4970110;28;20217;-88
2021/07/05 12:56:02;;;;;;;2.00;1.90;;;23.70;70.70;;;;;;4981865;28;20196;-88
2021/07/05 12:58:46;;;;;;;3.17;2.25;;;23.80;70.40;;;;;;4984478;28;20186;-88